Pago Pago, AS (96799)

9:47 PM SST on July 30, 2016 (GMT -1100)
Malaeimi | | Change Station

Elev 217 ft 14.32 °S, 170.74 °W | Updated 17 minutes ago

Light Rain
Light Rain
78.6 °F
Feels Like 82 °F
N
1.0
Wind Variable Wind from NNW
Gusts 1.0 mph

Today
High -- | Low -- °F
--% Chance of Precip.
Yesterday
High -- | Low -- °F
Precip. -- in
Pressure 29.96 in
Visibility 10.0 miles
Clouds Scattered Clouds 2300 ft
Scattered Clouds 2900 ft
Scattered Clouds 4500 ft
Heat Index 82 °F
Dew Point 75 °F
Humidity 89%
Rainfall 0.17 in
Snow Depth Not available.
6:44 AM 6:13 PM
Waning Crescent, 8% visible
METAR PHKO 310753Z 22007KT 10SM -RA SCT023 SCT029 SCT045 27/23 A2995 RMK AO2 RAB32 SLP143 P0000 T02720228
Pressure 29.96 in
Visibility 10.0 miles
Clouds Scattered Clouds 2300 ft
Scattered Clouds 2900 ft
Scattered Clouds 4500 ft
Heat Index 82 °F
Dew Point 75 °F
Humidity 89%
Rainfall 0.17 in
Snow Depth Not available.
6:44 AM 6:13 PM
Waning Crescent, 8% visible
METAR PHKO 310753Z 22007KT 10SM -RA SCT023 SCT029 SCT045 27/23 A2995 RMK AO2 RAB32 SLP143 P0000 T02720228

10-Day Weather Forecast

No radar image for this location.
×

Almanac

Astronomy

Jul. 30, 2016 Rise Set
Actual Time
Civil Twilight
Nautical Twilight
Astronomical Twilight
Moon
Length of Visible Light
Length of Day
Tomorrow will be .
, % of the Moon is Illuminated

Today's Extremes

State Highs State Lows

Community

WunderPhotos

Upload Photos

1,928,768 photos uploaded!

WunderBlog® & News

Nearby

Air Quality

  Air Quality AQ Index Pollutant
Not available.

Snow Depth

Station Depth Elevation

Earthquake Activity

City Distance Mag. Time & Date
Minimum magnitude displayed is 2.5.

Coastal Water Temperatures

Place Temperature

Stations

Nearby Weather Stations

Station Location Temp. Windchill Dew Point Humidity Wind Precip. Elev Updated Type
                   

Watches & Warnings

There are currently no watches in effect.